createdAt,value
2018-05-26T00:01:26.059Z,10.30
2018-05-26T00:03:53.565Z,11.13
2018-05-26T00:06:21.082Z,11.30
2018-05-26T00:08:48.611Z,11.37
2018-05-26T00:11:16.070Z,10.70
2018-05-26T00:13:43.561Z,11.40
2018-05-26T00:16:11.027Z,10.43
2018-05-26T00:18:38.511Z,10.93
2018-05-26T00:21:06.001Z,10.00
2018-05-26T00:23:33.478Z,11.17
2018-05-26T00:26:00.947Z,10.40
2018-05-26T00:28:28.438Z,10.53
2018-05-26T00:30:55.900Z,9.83
2018-05-26T00:33:23.381Z,11.27
2018-05-26T00:35:50.941Z,9.27
2018-05-26T00:38:18.414Z,8.30
2018-05-26T00:53:44.085Z,10.00
2018-05-26T00:56:11.550Z,10.90
2018-05-26T00:58:39.031Z,10.87
2018-05-26T01:01:06.524Z,11.00
2018-05-26T01:03:34.022Z,11.00
2018-05-26T01:06:01.519Z,11.10
2018-05-26T01:08:28.992Z,11.20
2018-05-26T01:10:56.472Z,10.83
2018-05-26T01:13:23.936Z,11.97
2018-05-26T01:15:51.434Z,12.50
2018-05-26T01:18:18.946Z,11.93
2018-05-26T01:20:46.413Z,11.60
2018-05-26T01:23:13.890Z,12.00
2018-05-26T01:25:41.365Z,12.00
2018-05-26T01:28:08.841Z,11.70
2018-05-26T01:30:42.220Z,11.10
2018-05-26T01:33:09.696Z,10.53
2018-05-26T01:35:37.154Z,10.47
2018-05-26T01:38:04.679Z,10.90
2018-05-26T01:40:32.159Z,11.60
2018-05-26T01:42:59.676Z,11.57
2018-05-26T01:45:27.273Z,11.47
2018-05-26T01:47:54.759Z,12.10
2018-05-26T01:50:22.327Z,12.67
2018-05-26T01:52:49.861Z,12.07
2018-05-26T01:55:17.329Z,12.23
2018-05-26T01:57:44.818Z,12.70
2018-05-26T02:00:12.345Z,11.90
2018-05-26T02:02:39.810Z,12.30
2018-05-26T02:05:07.322Z,12.63
2018-05-26T02:07:34.854Z,12.33
2018-05-26T02:10:02.391Z,11.97
2018-05-26T02:12:29.884Z,11.63
2018-05-26T02:14:58.240Z,13.27
2018-05-26T02:17:25.696Z,14.77
2018-05-26T02:19:53.233Z,14.20
2018-05-26T02:22:20.739Z,12.97
2018-05-26T02:24:48.238Z,14.17
2018-05-26T02:27:15.705Z,14.93
2018-05-26T02:29:43.218Z,13.87
2018-05-26T02:32:10.689Z,13.27
2018-05-26T02:34:38.149Z,13.10
2018-05-26T02:37:05.779Z,14.90
2018-05-26T02:39:33.361Z,15.10
2018-05-26T02:42:00.849Z,14.40
2018-05-26T02:44:28.356Z,13.80
2018-05-26T02:46:55.827Z,14.87
2018-05-26T02:49:23.359Z,15.07
2018-05-26T02:51:50.911Z,15.77
2018-05-26T02:54:18.524Z,14.97
2018-05-26T02:56:46.001Z,15.20
2018-05-26T02:59:13.557Z,15.17
2018-05-26T03:01:41.069Z,15.73
2018-05-26T03:04:07.994Z,14.90
2018-05-26T03:06:40.987Z,15.47
2018-05-26T03:09:13.953Z,14.77
2018-05-26T03:11:47.089Z,14.90
2018-05-26T03:14:20.020Z,14.70
2018-05-26T03:16:49.357Z,14.40
2018-05-26T03:19:17.344Z,12.70
2018-05-26T03:21:45.505Z,13.63
2018-05-26T03:24:13.053Z,12.70
2018-05-26T03:26:40.518Z,13.30
2018-05-26T03:29:07.999Z,13.77
2018-05-26T03:31:35.529Z,12.20
2018-05-26T03:34:02.982Z,13.83
2018-05-26T03:36:30.468Z,13.37
2018-05-26T03:38:57.989Z,13.57
2018-05-26T03:41:25.477Z,13.40
2018-05-26T03:43:52.946Z,12.43
2018-05-26T03:46:20.464Z,13.77
2018-05-26T03:48:47.938Z,16.10
2018-05-26T03:51:15.449Z,13.50
2018-05-26T03:53:43.035Z,14.30
2018-05-26T03:56:22.356Z,13.93
2018-05-26T03:59:01.508Z,14.87
2018-05-26T04:01:29.010Z,14.80
2018-05-26T04:03:56.603Z,13.27
2018-05-26T04:06:24.082Z,14.90
2018-05-26T04:08:51.809Z,13.80
2018-05-26T04:11:19.308Z,13.43
2018-05-26T04:13:46.802Z,12.80
2018-05-26T04:16:14.315Z,11.70
2018-05-26T04:18:41.907Z,11.57
2018-05-26T04:21:09.902Z,11.17
2018-05-26T04:23:37.419Z,11.73
2018-05-26T04:26:04.914Z,12.30
2018-05-26T04:28:32.440Z,12.80
2018-05-26T04:30:59.922Z,11.87
2018-05-26T04:33:27.477Z,12.33
2018-05-26T04:35:55.012Z,13.90
2018-05-26T04:38:22.503Z,12.63
2018-05-26T04:40:50.106Z,13.37
2018-05-26T04:43:17.679Z,13.57
2018-05-26T04:45:45.154Z,13.30
2018-05-26T04:48:12.622Z,12.60
2018-05-26T04:50:40.114Z,14.47
2018-05-26T04:53:07.603Z,13.77
2018-05-26T04:55:35.092Z,14.20
2018-05-26T04:58:02.618Z,13.40
2018-05-26T05:00:30.102Z,13.30
2018-05-26T05:02:57.589Z,12.73
2018-05-26T05:05:25.102Z,13.30
2018-05-26T05:07:52.580Z,11.73
2018-05-26T05:10:20.045Z,14.30
2018-05-26T05:12:47.530Z,13.97
2018-05-26T05:15:15.023Z,13.37
2018-05-26T05:17:42.476Z,15.10
2018-05-26T05:20:15.702Z,14.23
2018-05-26T05:22:43.154Z,17.40
2018-05-26T05:25:13.672Z,16.07
2018-05-26T05:27:41.285Z,16.30
2018-05-26T05:30:08.802Z,15.93
2018-05-26T05:32:36.742Z,19.30
2018-05-26T05:35:05.210Z,19.37
2018-05-26T05:37:32.735Z,17.90
2018-05-26T05:40:00.204Z,17.73
2018-05-26T05:42:27.684Z,18.50
2018-05-26T05:44:55.137Z,17.53
2018-05-26T05:47:22.618Z,16.30
2018-05-26T05:49:50.097Z,16.70
2018-05-26T05:52:17.622Z,17.00
2018-05-26T05:54:46.515Z,17.77
2018-05-26T05:57:14.037Z,16.83
2018-05-26T05:59:41.497Z,19.00
2018-05-26T06:02:08.963Z,17.17
2018-05-26T06:04:36.433Z,19.73
2018-05-26T06:07:03.909Z,19.50
2018-05-26T06:09:31.825Z,17.73
2018-05-26T06:11:59.337Z,17.37
2018-05-26T06:14:26.836Z,17.10
2018-05-26T06:16:54.324Z,20.13
2018-05-26T06:19:21.885Z,20.07
2018-05-26T06:21:49.377Z,19.57
2018-05-26T06:24:16.865Z,19.07
2018-05-26T06:26:44.349Z,18.67
2018-05-26T06:29:11.814Z,18.40
2018-05-26T06:31:39.305Z,19.17
2018-05-26T06:34:06.811Z,18.67
2018-05-26T06:36:34.356Z,19.97
2018-05-26T06:39:01.875Z,19.60
2018-05-26T06:41:29.375Z,19.10
2018-05-26T06:43:56.861Z,19.47
2018-05-26T06:46:24.354Z,19.00
2018-05-26T06:48:52.425Z,19.60
2018-05-26T06:51:19.882Z,19.70
2018-05-26T06:53:47.406Z,19.30
2018-05-26T06:56:14.941Z,19.73
2018-05-26T06:58:42.492Z,21.13
2018-05-26T07:01:09.985Z,19.53
2018-05-26T07:03:38.455Z,19.50
2018-05-26T07:06:05.979Z,21.37
2018-05-26T07:08:33.776Z,21.47
2018-05-26T07:11:01.381Z,21.27
2018-05-26T07:13:28.956Z,21.37
2018-05-26T07:15:56.522Z,20.07
2018-05-26T07:18:23.985Z,21.53
2018-05-26T07:20:51.514Z,19.27
2018-05-26T07:23:19.017Z,20.07
2018-05-26T07:25:46.517Z,18.27
2018-05-26T07:28:14.011Z,19.80
2018-05-26T07:30:41.578Z,18.20
2018-05-26T07:33:09.084Z,16.27
2018-05-26T07:35:36.563Z,14.73
2018-05-26T07:38:04.160Z,14.87
2018-05-26T07:40:31.661Z,14.20
2018-05-26T07:42:59.171Z,15.60
2018-05-26T07:45:26.667Z,15.13
2018-05-26T07:47:54.150Z,16.13
2018-05-26T07:50:21.647Z,15.87
2018-05-26T07:52:49.249Z,17.20
2018-05-26T07:55:16.739Z,15.20
2018-05-26T07:57:44.382Z,15.17
2018-05-26T08:00:11.929Z,14.50
2018-05-26T08:02:39.477Z,15.30
2018-05-26T08:05:07.027Z,14.57
2018-05-26T08:07:34.531Z,14.40
2018-05-26T08:10:02.051Z,14.80
2018-05-26T08:12:29.753Z,14.70
2018-05-26T08:14:57.224Z,15.27
2018-05-26T08:17:24.825Z,15.27
2018-05-26T08:19:52.451Z,15.80
2018-05-26T08:22:19.945Z,17.03
2018-05-26T08:24:47.466Z,16.20
2018-05-26T08:27:15.022Z,18.07
2018-05-26T08:29:42.471Z,19.80
2018-05-26T08:32:10.025Z,17.23
2018-05-26T08:34:37.518Z,19.30
2018-05-26T08:37:05.069Z,16.33
2018-05-26T08:39:32.691Z,19.60
2018-05-26T08:42:00.219Z,19.90
2018-05-26T08:44:27.736Z,16.10
2018-05-26T08:46:55.239Z,16.97
2018-05-26T08:49:22.819Z,16.10
2018-05-26T08:51:50.348Z,15.57
2018-05-26T08:54:17.847Z,15.87
2018-05-26T08:56:45.375Z,16.87
2018-05-26T08:59:12.886Z,17.40
2018-05-26T09:01:40.423Z,16.80
2018-05-26T09:04:08.602Z,16.87
2018-05-26T09:06:39.104Z,14.93
2018-05-26T09:09:07.485Z,16.57
2018-05-26T09:11:35.593Z,15.90
2018-05-26T09:14:03.086Z,16.00
2018-05-26T09:16:30.654Z,12.93
2018-05-26T09:18:58.184Z,12.40
2018-05-26T09:21:25.666Z,13.23
2018-05-26T09:23:53.198Z,12.93
2018-05-26T09:26:20.725Z,13.90
2018-05-26T09:28:48.296Z,14.27
2018-05-26T09:31:15.918Z,13.53
2018-05-26T09:33:43.447Z,13.80
2018-05-26T09:36:11.103Z,14.03
2018-05-26T09:38:38.690Z,13.17
2018-05-26T09:41:06.207Z,10.90
2018-05-26T09:43:33.695Z,9.30
2018-05-26T09:46:01.224Z,10.93
2018-05-26T09:48:28.740Z,10.63
2018-05-26T09:50:56.285Z,9.80
2018-05-26T09:53:23.750Z,8.20
2018-05-26T09:55:51.233Z,10.57
2018-05-26T09:58:18.742Z,7.90
2018-05-26T10:00:46.199Z,9.40
2018-05-26T10:03:13.688Z,9.43
2018-05-26T10:05:41.187Z,7.57
2018-05-26T10:08:08.677Z,9.70
2018-05-26T10:10:36.127Z,7.20
2018-05-26T10:13:03.617Z,6.23
2018-05-26T10:15:31.078Z,7.40
2018-05-26T10:17:58.629Z,6.80
2018-05-26T10:20:26.134Z,6.63
2018-05-26T10:22:53.631Z,9.33
2018-05-26T10:25:21.102Z,6.80
2018-05-26T10:27:48.615Z,7.93
2018-05-26T10:30:16.133Z,7.23
2018-05-26T10:32:43.584Z,7.60
2018-05-26T10:35:11.055Z,7.43
2018-05-26T10:37:38.514Z,7.60
2018-05-26T10:40:05.999Z,7.50
2018-05-26T10:42:33.462Z,6.03
2018-05-26T10:45:00.917Z,6.60
2018-05-26T10:47:28.835Z,7.00
2018-05-26T10:49:56.343Z,6.00
2018-05-26T10:52:23.838Z,5.87
2018-05-26T10:54:51.358Z,6.07
2018-05-26T10:57:18.841Z,6.33
2018-05-26T10:59:46.405Z,6.23
2018-05-26T11:02:13.894Z,5.10
2018-05-26T11:04:41.383Z,6.37
2018-05-26T11:07:08.857Z,5.43
2018-05-26T11:09:36.353Z,6.23
2018-05-26T11:12:03.840Z,6.60
2018-05-26T11:14:31.341Z,6.27
2018-05-26T11:16:58.778Z,4.80
2018-05-26T11:19:26.334Z,6.70
2018-05-26T11:21:53.871Z,6.43
2018-05-26T11:24:21.424Z,5.70
2018-05-26T11:26:48.889Z,6.53
2018-05-26T11:29:16.407Z,5.90
2018-05-26T11:31:43.894Z,6.30
2018-05-26T11:34:11.904Z,6.30
2018-05-26T11:36:39.389Z,5.50
2018-05-26T11:39:06.854Z,5.90
2018-05-26T11:41:35.621Z,5.63
2018-05-26T11:44:03.160Z,5.57
2018-05-26T11:46:30.668Z,5.00
2018-05-26T11:48:58.184Z,5.63
2018-05-26T11:51:25.732Z,6.30
2018-05-26T11:53:53.306Z,5.30
2018-05-26T11:56:20.855Z,5.17
2018-05-26T11:58:48.333Z,5.07
2018-05-26T12:01:15.858Z,5.10
2018-05-26T12:03:43.374Z,4.67
2018-05-26T12:06:10.895Z,4.27
2018-05-26T12:08:38.441Z,4.43
2018-05-26T12:11:06.015Z,4.30
2018-05-26T12:13:33.579Z,4.60
2018-05-26T12:16:01.144Z,4.63
2018-05-26T12:18:28.641Z,4.47
2018-05-26T12:20:56.228Z,5.27
2018-05-26T12:23:23.757Z,4.60
2018-05-26T12:25:51.273Z,4.97
2018-05-26T12:28:18.793Z,5.60
2018-05-26T12:30:46.444Z,4.87
2018-05-26T12:33:13.923Z,5.30
2018-05-26T12:35:41.434Z,4.90
2018-05-26T12:38:09.427Z,5.00
2018-05-26T12:40:36.925Z,5.10
2018-05-26T12:43:04.491Z,4.97
2018-05-26T12:45:32.067Z,5.20
2018-05-26T12:47:59.666Z,5.40
2018-05-26T12:50:27.190Z,5.03
2018-05-26T12:52:54.692Z,5.57
2018-05-26T12:57:55.988Z,4.70
2018-05-26T13:00:24.105Z,5.17
2018-05-26T13:02:51.587Z,5.23
2018-05-26T13:05:19.081Z,4.57
2018-05-26T13:07:46.590Z,4.60
2018-05-26T13:10:14.114Z,4.80
2018-05-26T13:12:41.624Z,4.00
2018-05-26T13:15:09.098Z,4.73
2018-05-26T13:17:36.726Z,4.60
2018-05-26T13:20:04.211Z,4.43
2018-05-26T13:22:31.701Z,4.27
2018-05-26T13:24:59.327Z,4.20
2018-05-26T13:27:26.840Z,4.60
2018-05-26T13:29:54.316Z,4.30
2018-05-26T13:32:21.864Z,4.50
2018-05-26T13:34:49.343Z,4.37
2018-05-26T13:37:16.857Z,4.37
2018-05-26T13:39:44.386Z,4.50
2018-05-26T13:42:11.895Z,4.33
2018-05-26T13:44:39.387Z,4.17
2018-05-26T13:47:06.911Z,4.40
2018-05-26T13:49:34.513Z,4.50
2018-05-26T13:52:02.048Z,4.47
2018-05-26T13:54:29.629Z,4.07
2018-05-26T13:56:57.119Z,4.20
2018-05-26T13:59:24.594Z,4.80
2018-05-26T14:01:52.095Z,4.77
2018-05-26T14:04:19.621Z,4.50
2018-05-26T14:06:47.076Z,4.30
2018-05-26T14:09:14.533Z,4.50
2018-05-26T14:11:42.968Z,4.27
2018-05-26T14:14:10.425Z,3.60
2018-05-26T14:16:37.881Z,3.40
2018-05-26T14:19:05.391Z,3.37
2018-05-26T14:21:32.864Z,3.93
2018-05-26T14:24:00.365Z,3.30
2018-05-26T14:26:27.865Z,3.37
2018-05-26T14:28:55.371Z,3.50
2018-05-26T14:31:22.836Z,3.00
2018-05-26T14:33:50.354Z,3.30
2018-05-26T14:36:17.850Z,3.20
2018-05-26T14:38:45.306Z,3.17
2018-05-26T14:41:12.823Z,3.30
2018-05-26T14:43:40.293Z,2.87
2018-05-26T14:46:07.776Z,3.03
2018-05-26T14:48:35.878Z,3.05
2018-05-26T14:51:03.421Z,2.65
2018-05-26T14:53:30.905Z,2.90
2018-05-26T14:55:58.443Z,3.00
2018-05-26T14:58:27.823Z,2.85
2018-05-26T15:00:55.323Z,2.83
2018-05-26T15:03:24.698Z,2.70
2018-05-26T15:05:52.268Z,3.42
2018-05-26T15:08:20.886Z,3.00
2018-05-26T15:10:48.563Z,2.22
2018-05-26T15:13:16.137Z,2.90
2018-05-26T15:15:43.528Z,2.92
2018-05-26T15:18:11.039Z,2.72
2018-05-26T15:20:38.527Z,2.60
2018-05-26T15:23:06.025Z,2.55
2018-05-26T15:25:33.511Z,2.62
2018-05-26T15:28:00.991Z,3.00
2018-05-26T15:30:28.460Z,3.08
2018-05-26T15:32:55.972Z,2.80
2018-05-26T15:35:23.444Z,3.00
2018-05-26T15:37:50.935Z,2.67
2018-05-26T15:40:18.426Z,2.75
2018-05-26T15:42:45.915Z,2.55
2018-05-26T15:45:13.420Z,2.60
2018-05-26T15:47:40.938Z,2.40
2018-05-26T15:50:08.461Z,2.45
2018-05-26T15:52:36.533Z,2.37
2018-05-26T15:55:04.167Z,2.67
2018-05-26T15:57:31.619Z,2.70
2018-05-26T15:59:59.136Z,2.60
2018-05-26T16:02:26.621Z,2.25
2018-05-26T16:04:54.085Z,2.50
2018-05-26T16:07:21.542Z,2.40
2018-05-26T16:09:49.136Z,2.83
2018-05-26T16:12:16.638Z,2.58
2018-05-26T16:14:44.115Z,3.10
2018-05-26T16:17:11.647Z,2.50
2018-05-26T16:19:39.120Z,3.10
2018-05-26T16:22:06.602Z,2.90
2018-05-26T16:24:34.100Z,2.83
2018-05-26T16:27:01.572Z,3.30
2018-05-26T16:29:29.133Z,3.22
2018-05-26T16:31:56.615Z,2.83
2018-05-26T16:34:24.111Z,2.87
2018-05-26T16:36:51.617Z,2.65
2018-05-26T16:39:19.164Z,2.25
2018-05-26T16:41:46.635Z,2.60
2018-05-26T16:44:14.131Z,2.60
2018-05-26T16:46:41.625Z,2.97
2018-05-26T16:49:09.135Z,2.45
2018-05-26T16:51:36.623Z,2.72
2018-05-26T16:54:04.119Z,2.50
2018-05-26T16:56:31.593Z,2.60
2018-05-26T16:58:59.057Z,2.62
2018-05-26T17:01:26.578Z,2.30
2018-05-26T17:03:54.039Z,2.75
2018-05-26T17:06:21.503Z,3.00
2018-05-26T17:08:49.001Z,2.80
2018-05-26T17:11:16.508Z,3.10
2018-05-26T17:13:44.004Z,3.07
2018-05-26T17:16:11.504Z,3.10
2018-05-26T17:18:39.097Z,3.87
2018-05-26T17:21:06.688Z,3.28
2018-05-26T17:23:34.290Z,2.83
2018-05-26T17:26:01.874Z,3.23
2018-05-26T17:28:29.514Z,3.95
2018-05-26T17:30:57.171Z,3.50
2018-05-26T17:33:25.103Z,3.40
2018-05-26T17:35:52.689Z,2.75
2018-05-26T17:38:20.306Z,3.28
2018-05-26T17:40:47.882Z,2.78
2018-05-26T17:43:15.405Z,2.85
2018-05-26T17:45:42.911Z,3.40
2018-05-26T17:48:10.405Z,3.20
2018-05-26T17:50:37.963Z,3.97
2018-05-26T17:53:05.594Z,3.83
2018-05-26T17:55:33.192Z,4.80
2018-05-26T17:58:00.715Z,4.20
2018-05-26T18:00:28.209Z,4.63
2018-05-26T18:02:55.686Z,4.37
2018-05-26T18:05:23.192Z,4.77
2018-05-26T18:07:50.697Z,4.50
2018-05-26T18:10:18.207Z,4.30
2018-05-26T18:12:45.700Z,4.90
2018-05-26T18:15:13.263Z,5.63
2018-05-26T18:17:40.708Z,5.37
2018-05-26T18:20:08.196Z,5.30
2018-05-26T18:22:35.664Z,5.07
2018-05-26T18:25:03.162Z,4.80
2018-05-26T18:27:30.634Z,4.73
2018-05-26T18:29:58.094Z,5.67
2018-05-26T18:32:25.556Z,5.73
2018-05-26T18:34:53.113Z,5.10
2018-05-26T18:37:20.578Z,5.50
2018-05-26T18:39:48.090Z,6.57
2018-05-26T18:42:15.599Z,5.63
2018-05-26T18:44:43.071Z,5.03
2018-05-26T18:47:10.557Z,5.40
2018-05-26T18:49:38.063Z,6.13
2018-05-26T18:52:05.558Z,6.60
2018-05-26T18:54:33.019Z,5.67
2018-05-26T18:57:00.528Z,6.87
2018-05-26T18:59:28.002Z,6.37
2018-05-26T19:01:55.517Z,6.40
2018-05-26T19:04:22.989Z,6.90
2018-05-26T19:06:50.461Z,7.43
2018-05-26T19:09:17.927Z,7.27
2018-05-26T19:11:45.382Z,7.80
2018-05-26T19:14:12.836Z,8.47
2018-05-26T19:16:40.305Z,8.30
2018-05-26T19:19:07.859Z,8.13
2018-05-26T19:21:35.358Z,8.77
2018-05-26T19:24:02.843Z,8.07
2018-05-26T19:26:30.399Z,8.40
2018-05-26T19:28:57.919Z,9.33
2018-05-26T19:31:25.398Z,8.13
2018-05-26T19:33:52.886Z,8.50
2018-05-26T19:36:20.404Z,8.80
2018-05-26T19:38:47.913Z,8.53
2018-05-26T19:41:15.398Z,9.83
2018-05-26T19:43:42.982Z,9.27
2018-05-26T19:46:10.535Z,9.50
2018-05-26T19:48:38.458Z,10.40
2018-05-26T19:51:05.940Z,9.13
2018-05-26T19:53:33.425Z,10.20
2018-05-26T19:56:00.924Z,11.70
2018-05-26T19:58:28.402Z,10.90
2018-05-26T20:00:55.919Z,11.90
2018-05-26T20:03:23.398Z,11.83
2018-05-26T20:05:50.907Z,11.70
2018-05-26T20:08:18.374Z,9.73
2018-05-26T20:10:46.829Z,10.70
2018-05-26T20:13:14.298Z,9.93
2018-05-26T20:15:41.762Z,8.77
2018-05-26T20:18:09.265Z,8.80
2018-05-26T20:20:36.758Z,8.73
2018-05-26T20:25:37.874Z,9.70
2018-05-26T20:28:05.340Z,9.87
2018-05-26T20:30:32.825Z,9.90
2018-05-26T20:33:00.306Z,9.97
2018-05-26T20:35:27.779Z,9.17
2018-05-26T20:37:55.316Z,9.80
2018-05-26T20:40:22.843Z,10.70
2018-05-26T20:42:50.313Z,10.27
2018-05-26T20:45:17.786Z,10.00
2018-05-26T20:47:45.274Z,9.60
2018-05-26T20:50:12.734Z,11.80
2018-05-26T20:52:40.219Z,11.77
2018-05-26T20:55:07.719Z,10.83
2018-05-26T20:57:35.180Z,11.77
2018-05-26T21:00:02.678Z,12.80
2018-05-26T21:02:30.277Z,11.33
2018-05-26T21:04:57.771Z,12.77
2018-05-26T21:07:25.271Z,12.30
2018-05-26T21:09:52.817Z,10.70
2018-05-26T21:12:20.393Z,11.60
2018-05-26T21:14:47.913Z,11.80
2018-05-26T21:17:15.505Z,11.80
2018-05-26T21:19:43.112Z,11.50
2018-05-26T21:22:10.606Z,10.90
2018-05-26T21:24:38.139Z,11.00
2018-05-26T21:27:05.668Z,11.70
2018-05-26T21:29:33.213Z,12.43
2018-05-26T21:32:00.795Z,11.63
2018-05-26T21:34:28.327Z,12.43
2018-05-26T21:36:55.872Z,13.47
2018-05-26T21:39:23.489Z,12.53
2018-05-26T21:41:51.004Z,14.33
2018-05-26T21:44:19.356Z,13.37
2018-05-26T21:46:48.223Z,13.30
2018-05-26T21:49:16.167Z,12.70
2018-05-26T21:51:44.557Z,13.13
2018-05-26T21:54:12.084Z,13.17
2018-05-26T21:56:39.604Z,12.33
2018-05-26T21:59:07.152Z,12.97
2018-05-26T22:01:34.660Z,12.33
2018-05-26T22:04:03.045Z,13.43
2018-05-26T22:06:30.546Z,13.80
2018-05-26T22:08:58.064Z,12.20
2018-05-26T22:11:25.533Z,13.37
2018-05-26T22:13:53.025Z,12.50
2018-05-26T22:16:20.551Z,14.80
2018-05-26T22:18:48.079Z,13.77
2018-05-26T22:21:15.599Z,13.40
2018-05-26T22:23:43.127Z,12.93
2018-05-26T22:26:10.639Z,13.90
2018-05-26T22:28:38.112Z,14.20
2018-05-26T22:31:05.641Z,12.63
2018-05-26T22:33:33.148Z,13.00
2018-05-26T22:36:00.660Z,13.33
2018-05-26T22:38:28.185Z,12.37
2018-05-26T22:40:55.656Z,12.40
2018-05-26T22:43:23.131Z,12.00
2018-05-26T22:45:50.673Z,11.93
2018-05-26T22:48:18.167Z,12.73
2018-05-26T22:50:45.636Z,11.83
2018-05-26T22:53:13.170Z,12.87
2018-05-26T22:55:40.666Z,12.17
2018-05-26T22:58:08.149Z,12.20
2018-05-26T23:00:36.884Z,12.47
2018-05-26T23:03:04.401Z,12.13
2018-05-26T23:05:31.887Z,13.13
2018-05-26T23:07:59.395Z,13.20
2018-05-26T23:10:26.879Z,12.20
2018-05-26T23:12:54.497Z,13.67
2018-05-26T23:15:22.235Z,13.20
2018-05-26T23:17:49.735Z,12.23
2018-05-26T23:20:17.240Z,12.43
2018-05-26T23:22:44.767Z,12.63
2018-05-26T23:25:12.269Z,12.50
2018-05-26T23:27:39.830Z,12.20
2018-05-26T23:30:07.341Z,11.67
2018-05-26T23:32:34.797Z,13.20
2018-05-26T23:35:02.258Z,12.90
2018-05-26T23:37:29.741Z,12.30
2018-05-26T23:39:57.249Z,12.20
2018-05-26T23:42:24.779Z,12.30
2018-05-26T23:44:52.874Z,12.50
2018-05-26T23:47:20.331Z,13.17
2018-05-26T23:49:47.802Z,13.07
2018-05-26T23:52:15.327Z,11.10
2018-05-26T23:54:42.810Z,11.07
2018-05-26T23:57:10.278Z,12.90
2018-05-26T23:59:37.758Z,12.10
